createdAt,value
2024-02-24T00:00:13.538Z,6.11
2024-02-24T00:02:42.198Z,5.95
2024-02-24T00:05:10.503Z,5.98
2024-02-24T00:07:38.272Z,6.07
2024-02-24T00:10:06.965Z,6.10
2024-02-24T00:12:37.267Z,6.15
2024-02-24T00:15:05.699Z,6.08
2024-02-24T00:17:33.577Z,6.00
2024-02-24T00:20:01.198Z,6.09
2024-02-24T00:22:28.857Z,5.99
2024-02-24T00:24:56.330Z,6.05
2024-02-24T00:27:23.987Z,6.09
2024-02-24T00:29:54.301Z,6.08
2024-02-24T00:32:22.441Z,5.98
2024-02-24T00:34:50.300Z,5.90
2024-02-24T00:37:18.186Z,5.92
2024-02-24T00:39:46.811Z,5.84
2024-02-24T00:42:14.831Z,5.83
2024-02-24T00:44:42.815Z,5.80
2024-02-24T00:47:13.150Z,5.78
2024-02-24T00:49:41.296Z,5.88
2024-02-24T00:52:08.899Z,5.84
2024-02-24T00:54:36.370Z,5.80
2024-02-24T00:57:04.119Z,5.70
2024-02-24T00:59:31.730Z,5.80
2024-02-24T01:01:59.329Z,5.76
2024-02-24T01:04:30.560Z,5.69
2024-02-24T01:06:59.724Z,5.67
2024-02-24T01:09:29.628Z,5.79
2024-02-24T01:12:00.366Z,5.81
2024-02-24T01:14:28.414Z,5.79
2024-02-24T01:16:56.223Z,5.83
2024-02-24T01:19:23.913Z,5.70
2024-02-24T01:21:56.629Z,5.75
2024-02-24T01:24:26.202Z,5.76
2024-02-24T01:26:53.807Z,5.78
2024-02-24T01:29:21.453Z,5.78
2024-02-24T01:31:49.221Z,5.69
2024-02-24T01:34:17.094Z,5.74
2024-02-24T01:36:44.573Z,5.70
2024-02-24T01:39:14.712Z,5.70
2024-02-24T01:41:42.675Z,5.58
2024-02-24T01:44:10.517Z,5.52
2024-02-24T01:46:38.252Z,5.54
2024-02-24T01:49:06.267Z,5.56
2024-02-24T01:51:34.321Z,5.59
2024-02-24T01:54:02.166Z,5.65
2024-02-24T01:56:33.869Z,5.75
2024-02-24T01:59:02.336Z,5.70
2024-02-24T02:01:30.109Z,5.79
2024-02-24T02:03:59.391Z,5.56
2024-02-24T02:06:30.421Z,5.58
2024-02-24T02:08:58.219Z,5.53
2024-02-24T02:11:25.907Z,5.63
2024-02-24T02:13:56.329Z,5.71
2024-02-24T02:16:24.704Z,5.73
2024-02-24T02:18:52.661Z,5.84
2024-02-24T02:21:22.388Z,5.70
2024-02-24T02:23:52.896Z,5.63
2024-02-24T02:26:21.442Z,5.61
2024-02-24T02:28:48.866Z,5.71
2024-02-24T02:31:16.562Z,5.52
2024-02-24T02:33:44.364Z,5.72
2024-02-24T02:36:15.319Z,5.68
2024-02-24T02:38:43.218Z,5.63
2024-02-24T02:41:13.284Z,5.68
2024-02-24T02:43:41.175Z,5.73
2024-02-24T02:46:08.811Z,5.56
2024-02-24T02:48:36.481Z,5.60
2024-02-24T02:51:04.540Z,5.63
2024-02-24T02:53:32.141Z,5.74
2024-02-24T02:55:59.698Z,5.38
2024-02-24T02:58:30.121Z,5.51
2024-02-24T03:00:57.995Z,5.57
2024-02-24T03:03:26.544Z,5.36
2024-02-24T03:05:54.493Z,5.49
2024-02-24T03:08:22.636Z,5.23
2024-02-24T03:10:50.293Z,5.28
2024-02-24T03:13:17.963Z,5.54
2024-02-24T03:15:48.131Z,5.51
2024-02-24T03:18:16.590Z,5.61
2024-02-24T03:20:45.877Z,5.50
2024-02-24T03:23:15.047Z,5.67
2024-02-24T03:25:42.622Z,5.71
2024-02-24T03:28:10.512Z,5.69
2024-02-24T03:30:38.287Z,5.74
2024-02-24T03:33:08.812Z,5.61
2024-02-24T03:35:36.874Z,5.65
2024-02-24T03:38:04.660Z,5.64
2024-02-24T03:40:32.752Z,5.62
2024-02-24T03:43:00.866Z,5.65
2024-02-24T03:45:28.569Z,5.72
2024-02-24T03:47:56.487Z,5.78
2024-02-24T03:50:26.754Z,5.79
2024-02-24T03:52:55.102Z,5.78
2024-02-24T03:55:22.536Z,5.71
2024-02-24T03:57:50.044Z,5.72
2024-02-24T04:00:19.043Z,5.74
2024-02-24T04:02:47.108Z,5.84
2024-02-24T04:05:14.729Z,5.78
2024-02-24T04:07:44.741Z,5.82
2024-02-24T04:10:12.680Z,5.85
2024-02-24T04:12:40.274Z,5.90
2024-02-24T04:15:08.839Z,5.93
2024-02-24T04:17:37.152Z,5.94
2024-02-24T04:20:05.407Z,6.00
2024-02-24T04:22:33.067Z,5.95
2024-02-24T04:25:06.158Z,5.82
2024-02-24T04:27:33.695Z,5.96
2024-02-24T04:30:01.376Z,5.91
2024-02-24T04:32:30.470Z,5.84
2024-02-24T04:34:58.111Z,5.86
2024-02-24T04:37:25.480Z,5.88
2024-02-24T04:39:53.921Z,6.00
2024-02-24T04:42:25.683Z,6.05
2024-02-24T04:44:53.868Z,6.06
2024-02-24T04:47:24.597Z,6.07
2024-02-24T04:49:53.096Z,6.05
2024-02-24T04:52:21.035Z,6.12
2024-02-24T04:54:53.094Z,6.13
2024-02-24T04:57:20.815Z,6.15
2024-02-24T04:59:51.213Z,6.19
2024-02-24T05:02:18.972Z,6.25
2024-02-24T05:04:46.603Z,6.36
2024-02-24T05:07:14.436Z,6.40
2024-02-24T05:09:42.251Z,6.41
2024-02-24T05:12:10.080Z,6.42
2024-02-24T05:14:39.239Z,6.41
2024-02-24T05:17:09.734Z,6.40
2024-02-24T05:19:37.424Z,6.41
2024-02-24T05:22:05.193Z,6.39
2024-02-24T05:24:32.790Z,6.51
2024-02-24T05:27:00.500Z,6.59
2024-02-24T05:29:28.308Z,6.48
2024-02-24T05:31:56.015Z,6.29
2024-02-24T05:34:26.452Z,6.40
2024-02-24T05:36:55.051Z,6.45
2024-02-24T05:39:22.752Z,6.56
2024-02-24T05:41:51.537Z,6.69
2024-02-24T05:44:19.297Z,6.76
2024-02-24T05:46:46.873Z,6.88
2024-02-24T05:49:14.837Z,6.84
2024-02-24T05:51:46.460Z,6.82
2024-02-24T05:54:14.437Z,6.93
2024-02-24T05:56:42.878Z,6.94
2024-02-24T05:59:10.449Z,6.91
2024-02-24T06:01:37.864Z,6.89
2024-02-24T06:04:05.696Z,6.97
2024-02-24T06:06:33.497Z,7.00
2024-02-24T06:09:04.183Z,6.96
2024-02-24T06:11:31.945Z,7.01
2024-02-24T06:13:59.804Z,7.02
2024-02-24T06:16:27.527Z,7.05
2024-02-24T06:18:55.240Z,7.08
2024-02-24T06:21:22.819Z,7.05
2024-02-24T06:23:50.470Z,7.01
2024-02-24T06:26:20.494Z,7.03
2024-02-24T06:28:47.967Z,7.03
2024-02-24T06:31:15.658Z,7.04
2024-02-24T06:33:43.271Z,7.05
2024-02-24T06:36:11.310Z,7.10
2024-02-24T06:38:39.250Z,7.12
2024-02-24T06:41:06.719Z,7.15
2024-02-24T06:43:36.970Z,7.16
2024-02-24T06:46:04.991Z,7.13
2024-02-24T06:48:32.551Z,7.12
2024-02-24T06:51:00.569Z,7.16
2024-02-24T06:53:28.552Z,7.17
2024-02-24T06:55:56.109Z,7.13
2024-02-24T06:58:23.807Z,7.15
2024-02-24T07:00:54.325Z,7.18
2024-02-24T07:03:22.226Z,7.06
2024-02-24T07:05:49.902Z,7.19
2024-02-24T07:08:17.347Z,7.15
2024-02-24T07:10:44.942Z,7.20
2024-02-24T07:13:12.599Z,7.13
2024-02-24T07:15:40.249Z,7.14
2024-02-24T07:18:10.779Z,6.57
2024-02-24T07:20:38.343Z,6.31
2024-02-24T07:23:06.027Z,6.13
2024-02-24T07:25:33.550Z,5.94
2024-02-24T07:28:01.385Z,5.89
2024-02-24T07:30:29.072Z,5.75
2024-02-24T07:32:57.254Z,5.57
2024-02-24T07:35:27.507Z,5.42
2024-02-24T07:37:55.050Z,5.22
2024-02-24T07:40:22.614Z,5.09
2024-02-24T07:42:50.932Z,4.94
2024-02-24T07:45:18.692Z,4.74
2024-02-24T07:47:46.199Z,4.61
2024-02-24T07:50:14.138Z,4.61
2024-02-24T07:52:46.291Z,4.51
2024-02-24T07:55:14.572Z,4.51
2024-02-24T07:57:42.258Z,4.40
2024-02-24T08:00:11.054Z,4.32
2024-02-24T08:02:38.636Z,4.21
2024-02-24T08:05:07.187Z,4.13
2024-02-24T08:07:34.604Z,4.20
2024-02-24T08:10:05.264Z,4.22
2024-02-24T08:12:32.985Z,4.17
2024-02-24T08:15:00.562Z,4.11
2024-02-24T08:17:28.392Z,4.11
2024-02-24T08:19:55.844Z,4.08
2024-02-24T08:22:23.273Z,4.00
2024-02-24T08:24:50.829Z,3.88
2024-02-24T08:27:21.003Z,3.99
2024-02-24T08:29:48.635Z,3.95
2024-02-24T08:32:19.284Z,3.79
2024-02-24T08:34:47.128Z,3.87
2024-02-24T08:37:14.905Z,3.75
2024-02-24T08:39:43.758Z,3.75
2024-02-24T08:42:11.373Z,3.62
2024-02-24T08:44:41.630Z,3.71
2024-02-24T08:47:09.331Z,3.75
2024-02-24T08:49:36.914Z,3.75
2024-02-24T08:52:05.009Z,3.77
2024-02-24T08:54:34.193Z,3.70
2024-02-24T08:57:01.928Z,3.71
2024-02-24T08:59:29.567Z,3.68
2024-02-24T09:01:59.740Z,3.70
2024-02-24T09:04:27.285Z,3.66
2024-02-24T09:06:54.728Z,3.58
2024-02-24T09:09:22.241Z,3.62
2024-02-24T09:11:51.001Z,3.64
2024-02-24T09:14:18.812Z,3.61
2024-02-24T09:16:46.295Z,3.52
2024-02-24T09:19:16.457Z,3.59
2024-02-24T09:21:45.384Z,3.60
2024-02-24T09:24:13.008Z,3.69
2024-02-24T09:26:40.647Z,3.72
2024-02-24T09:29:08.414Z,3.99
2024-02-24T09:31:36.162Z,4.00
2024-02-24T09:34:03.845Z,4.05
2024-02-24T09:36:34.299Z,3.95
2024-02-24T09:39:03.048Z,3.86
2024-02-24T09:41:30.718Z,4.01
2024-02-24T09:43:58.544Z,4.05
2024-02-24T09:46:26.608Z,4.11
2024-02-24T09:48:54.828Z,4.04
2024-02-24T09:51:22.266Z,4.06
2024-02-24T09:53:52.610Z,4.38
2024-02-24T09:56:24.261Z,4.47
2024-02-24T09:58:55.143Z,4.64
2024-02-24T10:01:22.649Z,4.66
2024-02-24T10:03:51.014Z,4.57
2024-02-24T10:06:19.035Z,4.56
2024-02-24T10:08:46.631Z,4.53
2024-02-24T10:11:17.465Z,4.55
2024-02-24T10:13:45.918Z,4.61
2024-02-24T10:16:14.253Z,4.66
2024-02-24T10:18:42.648Z,4.67
2024-02-24T10:21:10.543Z,4.54
2024-02-24T10:23:38.178Z,4.64
2024-02-24T10:26:06.439Z,4.68
2024-02-24T10:28:37.058Z,4.79
2024-02-24T10:31:05.574Z,4.82
2024-02-24T10:33:36.980Z,4.88
2024-02-24T10:36:09.156Z,4.92
2024-02-24T10:41:11.682Z,4.80
2024-02-24T10:43:43.129Z,4.84
2024-02-24T10:46:10.782Z,4.90
2024-02-24T10:48:38.675Z,5.01
2024-02-24T10:51:06.603Z,5.05
2024-02-24T10:53:35.505Z,5.26
2024-02-24T10:56:04.203Z,5.65
2024-02-24T10:58:34.418Z,5.48
2024-02-24T11:01:05.865Z,5.61
2024-02-24T11:03:33.591Z,5.85
2024-02-24T11:06:01.423Z,6.01
2024-02-24T11:08:36.693Z,6.00
2024-02-24T11:11:05.830Z,5.86
2024-02-24T11:13:34.071Z,6.32
2024-02-24T11:16:05.981Z,5.89
2024-02-24T11:18:57.750Z,6.46
2024-02-24T11:21:55.731Z,6.58
2024-02-24T11:24:23.495Z,6.57
2024-02-24T11:26:51.214Z,6.21
2024-02-24T11:29:19.216Z,6.30
2024-02-24T11:31:49.541Z,6.30
2024-02-24T11:34:17.933Z,6.25
2024-02-24T11:36:45.968Z,6.30
2024-02-24T11:39:14.491Z,6.82
2024-02-24T11:41:42.711Z,6.84
2024-02-24T11:44:11.576Z,7.02
2024-02-24T11:46:40.534Z,6.75
2024-02-24T11:49:12.133Z,7.23
2024-02-24T11:51:41.541Z,7.28
2024-02-24T11:54:11.089Z,6.92
2024-02-24T11:56:39.133Z,6.80
2024-02-24T11:59:08.479Z,6.90
2024-02-24T12:01:37.626Z,6.79
2024-02-24T12:04:05.664Z,6.85
2024-02-24T12:06:36.400Z,7.04
2024-02-24T12:09:04.253Z,6.97
2024-02-24T12:11:32.815Z,6.91
2024-02-24T12:14:00.609Z,7.14
2024-02-24T12:16:29.439Z,7.31
2024-02-24T12:18:58.224Z,7.39
2024-02-24T12:21:29.029Z,7.38
2024-02-24T12:23:59.629Z,7.24
2024-02-24T12:26:28.369Z,7.35
2024-02-24T12:28:56.577Z,7.45
2024-02-24T12:31:24.616Z,7.44
2024-02-24T12:33:52.628Z,7.30
2024-02-24T12:36:20.416Z,7.42
2024-02-24T12:38:49.910Z,7.31
2024-02-24T12:41:20.209Z,7.42
2024-02-24T12:43:47.848Z,7.76
2024-02-24T12:46:16.245Z,7.51
2024-02-24T12:48:46.234Z,7.85
2024-02-24T12:51:14.026Z,8.14
2024-02-24T12:53:43.096Z,8.16
2024-02-24T12:56:10.700Z,8.17
2024-02-24T12:58:42.925Z,7.97
2024-02-24T13:01:10.927Z,8.10
2024-02-24T13:03:38.806Z,7.88
2024-02-24T13:06:08.945Z,7.90
2024-02-24T13:08:36.599Z,7.81
2024-02-24T13:11:04.735Z,7.88
2024-02-24T13:13:32.342Z,7.88
2024-02-24T13:16:02.472Z,7.83
2024-02-24T13:18:30.351Z,7.92
2024-02-24T13:20:58.024Z,7.91
2024-02-24T13:23:25.596Z,7.86
2024-02-24T13:25:53.257Z,7.91
2024-02-24T13:28:20.745Z,8.00
2024-02-24T13:30:48.453Z,8.09
2024-02-24T13:33:19.250Z,8.23
2024-02-24T13:35:46.897Z,8.11
2024-02-24T13:38:14.477Z,8.16
2024-02-24T13:40:43.587Z,8.02
2024-02-24T13:43:13.308Z,8.34
2024-02-24T13:45:41.509Z,8.35
2024-02-24T13:48:09.040Z,8.41
2024-02-24T13:50:39.377Z,8.33
2024-02-24T13:53:08.252Z,8.10
2024-02-24T13:55:36.775Z,8.26
2024-02-24T13:58:06.249Z,8.36
2024-02-24T14:00:34.097Z,8.55
2024-02-24T14:03:04.347Z,8.64
2024-02-24T14:05:34.768Z,8.43
2024-02-24T14:08:06.098Z,8.57
2024-02-24T14:10:34.954Z,8.54
2024-02-24T14:13:02.712Z,8.55
2024-02-24T14:15:30.220Z,8.63
2024-02-24T14:17:59.535Z,8.51
2024-02-24T14:20:33.188Z,8.49
2024-02-24T14:23:01.199Z,8.43
2024-02-24T14:25:33.062Z,8.51
2024-02-24T14:28:03.908Z,8.54
2024-02-24T14:30:34.794Z,8.34
2024-02-24T14:33:02.481Z,8.42
2024-02-24T14:35:30.137Z,8.54
2024-02-24T14:37:57.796Z,8.54
2024-02-24T14:40:25.757Z,8.39
2024-02-24T14:42:57.767Z,8.43
2024-02-24T14:45:26.933Z,8.33
2024-02-24T14:47:56.314Z,8.22
2024-02-24T14:50:24.164Z,8.34
2024-02-24T14:52:51.557Z,8.25
2024-02-24T14:55:19.208Z,8.35
2024-02-24T14:57:46.859Z,8.31
2024-02-24T15:00:18.114Z,8.30
2024-02-24T15:02:53.100Z,8.30
2024-02-24T15:05:32.016Z,8.35
2024-02-24T15:07:59.567Z,8.41
2024-02-24T15:10:26.924Z,8.40
2024-02-24T15:12:55.273Z,8.40
2024-02-24T15:15:25.442Z,8.38
2024-02-24T15:17:56.218Z,8.36
2024-02-24T15:20:24.125Z,8.22
2024-02-24T15:22:52.413Z,8.27
2024-02-24T15:25:20.237Z,8.17
2024-02-24T15:27:48.008Z,8.15
2024-02-24T15:30:16.193Z,8.05
2024-02-24T15:32:46.506Z,8.16
2024-02-24T15:35:14.457Z,8.17
2024-02-24T15:37:42.376Z,8.10
2024-02-24T15:40:12.883Z,8.12
2024-02-24T15:42:40.573Z,8.13
2024-02-24T15:45:09.217Z,8.13
2024-02-24T15:47:37.321Z,8.05
2024-02-24T15:50:08.720Z,7.91
2024-02-24T15:52:36.691Z,8.14
2024-02-24T15:55:04.975Z,8.15
2024-02-24T15:57:32.723Z,7.82
2024-02-24T16:00:00.560Z,7.76
2024-02-24T16:02:28.708Z,7.69
2024-02-24T16:04:56.448Z,7.59
2024-02-24T16:07:26.820Z,7.58
2024-02-24T16:09:54.467Z,7.56
2024-02-24T16:12:22.672Z,7.45
2024-02-24T16:14:50.411Z,7.50
2024-02-24T16:17:18.404Z,7.36
2024-02-24T16:19:46.055Z,7.39
2024-02-24T16:22:13.932Z,7.32
2024-02-24T16:24:44.110Z,7.23
2024-02-24T16:27:12.521Z,7.14
2024-02-24T16:29:40.405Z,7.12
2024-02-24T16:32:09.951Z,7.12
2024-02-24T16:34:38.101Z,6.97
2024-02-24T16:37:06.160Z,6.95
2024-02-24T16:39:33.976Z,6.90
2024-02-24T16:42:04.973Z,6.91
2024-02-24T16:44:32.629Z,6.87
2024-02-24T16:47:02.434Z,6.73
2024-02-24T16:49:32.074Z,6.74
2024-02-24T16:51:59.674Z,6.70
2024-02-24T16:54:27.419Z,6.70
2024-02-24T16:56:55.215Z,6.65
2024-02-24T16:59:25.526Z,6.61
2024-02-24T17:01:53.531Z,6.55
2024-02-24T17:04:21.295Z,6.49
2024-02-24T17:06:48.936Z,6.47
2024-02-24T17:09:16.748Z,6.36
2024-02-24T17:11:44.861Z,6.37
2024-02-24T17:14:12.668Z,6.24
2024-02-24T17:16:43.063Z,6.22
2024-02-24T17:19:11.213Z,6.28
2024-02-24T17:21:39.213Z,6.21
2024-02-24T17:24:07.484Z,6.20
2024-02-24T17:26:35.377Z,6.15
2024-02-24T17:29:03.680Z,6.05
2024-02-24T17:31:31.638Z,5.98
2024-02-24T17:34:02.299Z,6.04
2024-02-24T17:36:32.138Z,6.02
2024-02-24T17:38:59.566Z,5.97
2024-02-24T17:41:27.259Z,5.89
2024-02-24T17:43:54.969Z,5.85
2024-02-24T17:46:23.061Z,5.93
2024-02-24T17:48:51.149Z,5.85
2024-02-24T17:51:21.447Z,5.88
2024-02-24T17:53:54.997Z,5.82
2024-02-24T17:56:23.599Z,5.81
2024-02-24T17:58:52.485Z,5.66
2024-02-24T18:01:20.428Z,5.66
2024-02-24T18:03:48.188Z,5.68
2024-02-24T18:06:16.677Z,5.59
2024-02-24T18:08:47.759Z,5.60
2024-02-24T18:11:15.695Z,5.56
2024-02-24T18:13:43.305Z,5.38
2024-02-24T18:16:12.795Z,5.50
2024-02-24T18:18:40.574Z,5.50
2024-02-24T18:21:15.793Z,5.26
2024-02-24T18:23:43.304Z,5.30
2024-02-24T18:26:13.736Z,5.35
2024-02-24T18:28:41.347Z,5.37
2024-02-24T18:31:09.892Z,5.34
2024-02-24T18:33:38.470Z,5.23
2024-02-24T18:36:07.934Z,5.09
2024-02-24T18:38:35.686Z,5.03
2024-02-24T18:41:03.536Z,4.96
2024-02-24T18:43:34.288Z,4.96
2024-02-24T18:46:02.094Z,4.97
2024-02-24T18:48:29.724Z,4.97
2024-02-24T18:50:57.322Z,4.87
2024-02-24T18:53:24.770Z,4.85
2024-02-24T18:55:52.646Z,4.62
2024-02-24T18:58:20.405Z,4.74
2024-02-24T19:00:50.847Z,4.78
2024-02-24T19:03:18.851Z,4.79
2024-02-24T19:05:46.826Z,4.64
2024-02-24T19:08:14.742Z,4.64
2024-02-24T19:10:42.451Z,4.70
2024-02-24T19:13:09.929Z,4.47
2024-02-24T19:15:37.765Z,4.46
2024-02-24T19:18:14.907Z,4.61
2024-02-24T19:20:43.081Z,4.69
2024-02-24T19:23:12.344Z,4.62
2024-02-24T19:25:40.347Z,4.57
2024-02-24T19:28:08.164Z,4.57
2024-02-24T19:30:36.035Z,4.56
2024-02-24T19:33:04.506Z,4.60
2024-02-24T19:35:35.381Z,4.59
2024-02-24T19:38:03.730Z,4.54
2024-02-24T19:40:31.659Z,4.42
2024-02-24T19:42:59.342Z,4.49
2024-02-24T19:45:27.093Z,4.50
2024-02-24T19:47:55.229Z,4.43
2024-02-24T19:50:23.240Z,4.40
2024-02-24T19:52:53.818Z,4.33
2024-02-24T19:55:22.733Z,4.40
2024-02-24T19:57:50.677Z,4.32
2024-02-24T20:00:18.937Z,4.35
2024-02-24T20:02:46.918Z,4.36
2024-02-24T20:05:14.994Z,4.41
2024-02-24T20:07:42.780Z,4.30
2024-02-24T20:10:13.266Z,4.36
2024-02-24T20:12:41.891Z,4.32
2024-02-24T20:15:10.842Z,4.20
2024-02-24T20:17:38.523Z,4.35
2024-02-24T20:20:08.033Z,4.26
2024-02-24T20:22:35.631Z,4.30
2024-02-24T20:25:03.282Z,4.30
2024-02-24T20:27:33.542Z,4.26
2024-02-24T20:30:01.577Z,4.22
2024-02-24T20:32:29.163Z,4.03
2024-02-24T20:34:56.860Z,4.11
2024-02-24T20:37:31.812Z,4.12
2024-02-24T20:40:00.901Z,4.19
2024-02-24T20:42:28.753Z,4.15
2024-02-24T20:44:59.083Z,4.20
2024-02-24T20:47:26.965Z,4.26
2024-02-24T20:49:54.615Z,4.20
2024-02-24T20:52:22.340Z,4.10
2024-02-24T20:54:51.100Z,4.13
2024-02-24T20:57:18.855Z,4.11
2024-02-24T20:59:47.047Z,4.02
2024-02-24T21:02:17.420Z,3.97
2024-02-24T21:04:44.969Z,3.94
2024-02-24T21:07:12.570Z,3.96
2024-02-24T21:09:40.173Z,4.04
2024-02-24T21:12:11.483Z,4.06
2024-02-24T21:14:39.082Z,3.90
2024-02-24T21:17:07.129Z,3.93
2024-02-24T21:19:37.349Z,3.94
2024-02-24T21:22:05.561Z,3.93
2024-02-24T21:24:33.134Z,3.93
2024-02-24T21:27:00.696Z,4.03
2024-02-24T21:29:28.243Z,3.98
2024-02-24T21:31:55.794Z,3.96
2024-02-24T21:34:23.759Z,4.06
2024-02-24T21:36:53.942Z,4.04
2024-02-24T21:39:21.396Z,3.97
2024-02-24T21:41:49.143Z,4.03
2024-02-24T21:44:16.739Z,3.99
2024-02-24T21:46:44.124Z,3.98
2024-02-24T21:49:11.916Z,3.91
2024-02-24T21:51:39.579Z,3.92
2024-02-24T21:54:13.698Z,3.99
2024-02-24T21:56:41.518Z,3.95
2024-02-24T21:59:09.157Z,3.77
2024-02-24T22:01:36.703Z,3.72
2024-02-24T22:04:04.950Z,3.77
2024-02-24T22:06:32.573Z,3.82
2024-02-24T22:09:00.250Z,3.72
2024-02-24T22:11:35.328Z,3.76
2024-02-24T22:14:03.278Z,3.75
2024-02-24T22:16:31.201Z,3.80
2024-02-24T22:18:58.779Z,3.82
2024-02-24T22:21:28.109Z,3.89
2024-02-24T22:23:56.581Z,3.81
2024-02-24T22:26:25.669Z,3.78
2024-02-24T22:28:56.570Z,3.70
2024-02-24T22:31:24.022Z,3.64
2024-02-24T22:33:51.704Z,3.65
2024-02-24T22:36:21.861Z,3.66
2024-02-24T22:38:53.324Z,3.61
2024-02-24T22:41:24.550Z,3.67
2024-02-24T22:43:52.779Z,3.65
2024-02-24T22:46:23.091Z,3.66
2024-02-24T22:48:50.881Z,3.65
2024-02-24T22:51:19.768Z,3.61
2024-02-24T22:53:47.455Z,3.49
2024-02-24T22:56:14.949Z,3.52
2024-02-24T22:58:46.408Z,3.47
2024-02-24T23:01:15.548Z,3.43
2024-02-24T23:03:45.899Z,3.35
2024-02-24T23:06:13.870Z,3.22
2024-02-24T23:08:41.421Z,3.24
2024-02-24T23:11:08.951Z,3.25
2024-02-24T23:13:36.584Z,3.15
2024-02-24T23:16:04.362Z,3.15
2024-02-24T23:18:32.448Z,2.99
2024-02-24T23:21:02.735Z,3.14
2024-02-24T23:23:30.644Z,3.12
2024-02-24T23:25:58.455Z,3.09
2024-02-24T23:28:25.814Z,2.97
2024-02-24T23:30:53.269Z,2.83
2024-02-24T23:33:21.137Z,2.86
2024-02-24T23:35:48.977Z,2.84
2024-02-24T23:38:19.490Z,2.84
2024-02-24T23:40:47.067Z,2.82
2024-02-24T23:43:14.912Z,2.77
2024-02-24T23:45:44.516Z,2.67
2024-02-24T23:48:12.561Z,2.62
2024-02-24T23:50:40.151Z,2.46
2024-02-24T23:53:07.706Z,2.63
2024-02-24T23:55:38.089Z,2.66
2024-02-24T23:58:07.187Z,2.51
